Rutland, Pennsylvania
Current Conditions -  °F | °C
As of 6:55 AM on Sunday 21 Dec 2014 (Local Time) from KN38 Reporting Station
Overcast Overcast  
Wind Chill: 25°   Ceiling: 1600
Heat Index: 25°   Visibility: 10mi
Dew Point: 21°   Wind: 0mph
Humidity: 86%   Direction: NA
Pressure: 30.23"   Gusts: NA
Location:  41.8345°N, 77.0538°W
Report Text: KN38 211155Z AUTO 00000KT 10SM OVC016 M04/M06 A3023 RMK AO2
Loading
Personal Weather Stations






























Interactive Weather Map New forecast layout! Learn more

10-Day Weather Forecast

Advertisements
Track Severe Weather on mobile